Aérodrome :
LOGIN :

S'inscrire | Disclaimer

   EN    FR    IT 

 










Légende :    VFR   VFR Marginal   IFR   IFR Intensif   IFR Très Intensif
Visi : 
Plafond : 
>= 8 km
>= 3000ft
5 à 8 km
1000 à 3000 ft
1500m à 5 km
500 à 1000 ft
800 à 1500m
200 à 500 ft
< 800m
< 200 ft
Symboles :   Orages  Brouillard  Fortes neiges  Fortes précipitations  Vent > 20 kt
SIGMETs :   Divers  Orages  Givrage  Turbulence  Onde Orograph.  Cendres Volcan.







- Altitude de l'aérodrome : 74 ft
- Code IATA : EIN


EHEH - Eindhoven

DERNIER METAR :
  • 241225Z AUTO 35007KT 280V060 9999 OVC045 19/09 Q1024 BLU 35007KT 9999 SCT045 BKN100

METARs EXPIRÉS :
  • 241155Z AUTO VRB07KT 9999 OVC047 19/08 Q1024 BLU 35007KT 9999 SCT045 BKN100
  • 241125Z AUTO 35008KT 260V050 9999 BKN054 BKN095 OVC100 19/08 Q1024 BLU 35007KT 9999 SCT035 BKN100
  • 241114Z AUTO 35007KT 300V070 9999 SCT037 SCT055 BKN096 18/08 Q1024 BLU 35007KT 9999 SCT035 BKN100
  • 241055Z AUTO 33007KT 320V060 9999 SCT035 OVC100 18/08 Q1024 BLU 35007KT 9999 SCT027 BKN100
  • 241025Z AUTO 35006KT 270V030 9999 FEW030 OVC110 18/09 Q1024 BLU 35007KT 9999 SCT027 BKN100
  • 240955Z AUTO 36006KT 270V060 9999 BKN030 OVC100 18/09 Q1024 BLU 35007KT 9999 SCT027 BKN100

TAF TAF EHEH
Valide du 24 à 12h jusqu'au 25 à 18h UTC


241128Z 2412/2518 35007KT 9999 SCT030 BKN050
TEMPO 2422/2504 4500 BR SCT018 BKN025
BECMG 2504/2506 SCT012 BKN018
BECMG 2507/2509 35010G20KT SCT030
Pas de NOTAMs connus pour ce terrain.



MET'MAP, la Météo Aéronautique d'un coup d'oeil ! - Copyright ORBIFLY Décembre 2007 - Disclaimer

ORBIFLY MET'MAP TEAM :

Programmation & Développement : Alexandra Zaïnal
Conception & Développement : Baudouin d'Aumeries
Co-Programmation & Développement : Marc-Olivier Méhu
Soutien technique & logistique : Manuel Goepfert

Contact : metmap@orbifly.com




SOURCES & CREDITS :

   NOAA